sensor_id;sensor_type;location;lat;lon;timestamp;P1;durP1;ratioP1;P2;durP2;ratioP2
3004;SDS011;1512;51.486;6.610;2023-05-07T00:03:25;13.63;;;8.57;;
3004;SDS011;1512;51.486;6.610;2023-05-07T00:07:34;11.87;;;9.07;;
3004;SDS011;1512;51.486;6.610;2023-05-07T00:11:43;12.70;;;9.30;;
3004;SDS011;1512;51.486;6.610;2023-05-07T00:15:52;9.53;;;8.63;;
3004;SDS011;1512;51.486;6.610;2023-05-07T00:20:00;15.00;;;9.27;;
3004;SDS011;1512;51.486;6.610;2023-05-07T00:24:10;14.10;;;10.40;;
3004;SDS011;1512;51.486;6.610;2023-05-07T00:28:19;12.57;;;11.23;;
3004;SDS011;1512;51.486;6.610;2023-05-07T00:32:28;11.93;;;10.07;;
3004;SDS011;1512;51.486;6.610;2023-05-07T00:36:36;13.03;;;10.43;;
3004;SDS011;1512;51.486;6.610;2023-05-07T00:40:45;13.40;;;10.90;;
3004;SDS011;1512;51.486;6.610;2023-05-07T00:44:54;15.57;;;10.43;;
3004;SDS011;1512;51.486;6.610;2023-05-07T00:53:33;11.80;;;10.70;;
3004;SDS011;1512;51.486;6.610;2023-05-07T00:57:42;12.57;;;11.20;;
3004;SDS011;1512;51.486;6.610;2023-05-07T01:01:52;13.10;;;11.70;;
3004;SDS011;1512;51.486;6.610;2023-05-07T01:06:01;12.93;;;11.60;;
3004;SDS011;1512;51.486;6.610;2023-05-07T01:10:11;12.67;;;11.33;;
3004;SDS011;1512;51.486;6.610;2023-05-07T01:14:20;11.57;;;10.40;;
3004;SDS011;1512;51.486;6.610;2023-05-07T01:18:29;17.80;;;12.67;;
3004;SDS011;1512;51.486;6.610;2023-05-07T01:22:38;18.63;;;11.93;;
3004;SDS011;1512;51.486;6.610;2023-05-07T01:26:50;15.13;;;12.77;;
3004;SDS011;1512;51.486;6.610;2023-05-07T01:31:00;16.40;;;11.77;;
3004;SDS011;1512;51.486;6.610;2023-05-07T01:35:11;14.60;;;11.87;;
3004;SDS011;1512;51.486;6.610;2023-05-07T01:39:42;16.30;;;11.83;;
3004;SDS011;1512;51.486;6.610;2023-05-07T01:43:53;15.30;;;13.70;;
3004;SDS011;1512;51.486;6.610;2023-05-07T01:48:03;14.57;;;12.97;;
3004;SDS011;1512;51.486;6.610;2023-05-07T01:52:12;15.23;;;12.17;;
3004;SDS011;1512;51.486;6.610;2023-05-07T01:56:21;15.83;;;12.87;;
3004;SDS011;1512;51.486;6.610;2023-05-07T02:00:29;15.50;;;13.33;;
3004;SDS011;1512;51.486;6.610;2023-05-07T02:04:43;15.50;;;13.00;;
3004;SDS011;1512;51.486;6.610;2023-05-07T02:08:52;15.23;;;13.63;;
3004;SDS011;1512;51.486;6.610;2023-05-07T02:13:00;13.60;;;12.20;;
3004;SDS011;1512;51.486;6.610;2023-05-07T02:17:10;20.97;;;12.60;;
3004;SDS011;1512;51.486;6.610;2023-05-07T02:21:18;15.37;;;12.17;;
3004;SDS011;1512;51.486;6.610;2023-05-07T02:25:27;17.48;;;12.53;;
3004;SDS011;1512;51.486;6.610;2023-05-07T02:29:37;16.23;;;13.07;;
3004;SDS011;1512;51.486;6.610;2023-05-07T02:38:14;12.40;;;11.10;;
3004;SDS011;1512;51.486;6.610;2023-05-07T02:42:22;15.80;;;12.60;;
3004;SDS011;1512;51.486;6.610;2023-05-07T02:46:31;15.30;;;12.30;;
3004;SDS011;1512;51.486;6.610;2023-05-07T02:55:08;15.83;;;12.87;;
3004;SDS011;1512;51.486;6.610;2023-05-07T02:59:17;16.73;;;13.50;;
3004;SDS011;1512;51.486;6.610;2023-05-07T03:03:26;15.93;;;12.40;;
3004;SDS011;1512;51.486;6.610;2023-05-07T03:07:35;20.47;;;13.90;;
3004;SDS011;1512;51.486;6.610;2023-05-07T03:11:44;15.07;;;13.33;;
3004;SDS011;1512;51.486;6.610;2023-05-07T03:15:53;14.30;;;12.60;;
3004;SDS011;1512;51.486;6.610;2023-05-07T03:20:02;15.60;;;13.67;;
3004;SDS011;1512;51.486;6.610;2023-05-07T03:24:11;18.00;;;13.63;;
3004;SDS011;1512;51.486;6.610;2023-05-07T03:28:20;14.97;;;12.70;;
3004;SDS011;1512;51.486;6.610;2023-05-07T03:32:28;18.67;;;12.67;;
3004;SDS011;1512;51.486;6.610;2023-05-07T03:36:37;17.37;;;14.27;;
3004;SDS011;1512;51.486;6.610;2023-05-07T03:40:46;16.40;;;12.80;;
3004;SDS011;1512;51.486;6.610;2023-05-07T03:45:01;17.83;;;13.10;;
3004;SDS011;1512;51.486;6.610;2023-05-07T03:49:09;16.23;;;13.67;;
3004;SDS011;1512;51.486;6.610;2023-05-07T03:53:18;19.50;;;13.30;;
3004;SDS011;1512;51.486;6.610;2023-05-07T03:57:27;17.53;;;13.70;;
3004;SDS011;1512;51.486;6.610;2023-05-07T04:01:36;19.20;;;14.60;;
3004;SDS011;1512;51.486;6.610;2023-05-07T04:05:45;17.50;;;12.30;;
3004;SDS011;1512;51.486;6.610;2023-05-07T04:14:22;18.97;;;14.00;;
3004;SDS011;1512;51.486;6.610;2023-05-07T04:18:30;20.63;;;12.60;;
3004;SDS011;1512;51.486;6.610;2023-05-07T04:27:07;16.67;;;14.17;;
3004;SDS011;1512;51.486;6.610;2023-05-07T04:31:16;14.50;;;12.47;;
3004;SDS011;1512;51.486;6.610;2023-05-07T04:35:24;19.83;;;15.73;;
3004;SDS011;1512;51.486;6.610;2023-05-07T04:39:33;19.32;;;14.20;;
3004;SDS011;1512;51.486;6.610;2023-05-07T04:43:42;17.37;;;13.97;;
3004;SDS011;1512;51.486;6.610;2023-05-07T04:47:50;19.83;;;15.83;;
3004;SDS011;1512;51.486;6.610;2023-05-07T04:51:59;17.33;;;13.60;;
3004;SDS011;1512;51.486;6.610;2023-05-07T04:56:08;17.73;;;14.00;;
3004;SDS011;1512;51.486;6.610;2023-05-07T05:00:17;18.47;;;13.93;;
3004;SDS011;1512;51.486;6.610;2023-05-07T05:04:26;21.83;;;14.67;;
3004;SDS011;1512;51.486;6.610;2023-05-07T05:13:03;20.00;;;14.67;;
3004;SDS011;1512;51.486;6.610;2023-05-07T05:17:11;15.80;;;14.00;;
3004;SDS011;1512;51.486;6.610;2023-05-07T05:21:20;20.07;;;14.30;;
3004;SDS011;1512;51.486;6.610;2023-05-07T05:29:57;17.93;;;13.67;;
3004;SDS011;1512;51.486;6.610;2023-05-07T05:34:06;19.80;;;16.40;;
3004;SDS011;1512;51.486;6.610;2023-05-07T05:38:14;20.23;;;14.90;;
3004;SDS011;1512;51.486;6.610;2023-05-07T05:42:23;20.00;;;14.53;;
3004;SDS011;1512;51.486;6.610;2023-05-07T05:46:32;20.77;;;14.23;;
3004;SDS011;1512;51.486;6.610;2023-05-07T05:50:42;18.27;;;15.27;;
3004;SDS011;1512;51.486;6.610;2023-05-07T05:54:51;21.90;;;16.63;;
3004;SDS011;1512;51.486;6.610;2023-05-07T05:59:01;17.77;;;15.87;;
3004;SDS011;1512;51.486;6.610;2023-05-07T06:03:10;21.87;;;14.70;;
3004;SDS011;1512;51.486;6.610;2023-05-07T06:07:20;19.87;;;14.63;;
3004;SDS011;1512;51.486;6.610;2023-05-07T06:11:29;18.00;;;14.13;;
3004;SDS011;1512;51.486;6.610;2023-05-07T06:15:39;17.10;;;13.40;;
3004;SDS011;1512;51.486;6.610;2023-05-07T06:19:47;15.10;;;11.73;;
3004;SDS011;1512;51.486;6.610;2023-05-07T06:23:56;16.97;;;12.23;;
3004;SDS011;1512;51.486;6.610;2023-05-07T06:28:05;13.03;;;10.93;;
3004;SDS011;1512;51.486;6.610;2023-05-07T06:32:16;14.00;;;9.60;;
3004;SDS011;1512;51.486;6.610;2023-05-07T06:36:24;11.13;;;7.07;;
3004;SDS011;1512;51.486;6.610;2023-05-07T06:40:33;7.10;;;6.20;;
3004;SDS011;1512;51.486;6.610;2023-05-07T06:44:42;10.40;;;7.47;;
3004;SDS011;1512;51.486;6.610;2023-05-07T06:48:51;9.90;;;7.40;;
3004;SDS011;1512;51.486;6.610;2023-05-07T06:57:29;12.63;;;8.00;;
3004;SDS011;1512;51.486;6.610;2023-05-07T07:01:38;7.90;;;6.07;;
3004;SDS011;1512;51.486;6.610;2023-05-07T07:05:47;10.90;;;7.23;;
3004;SDS011;1512;51.486;6.610;2023-05-07T07:09:57;6.33;;;5.33;;
3004;SDS011;1512;51.486;6.610;2023-05-07T07:14:06;7.33;;;5.40;;
3004;SDS011;1512;51.486;6.610;2023-05-07T07:18:14;8.20;;;5.90;;
3004;SDS011;1512;51.486;6.610;2023-05-07T07:22:23;10.50;;;6.37;;
3004;SDS011;1512;51.486;6.610;2023-05-07T07:26:32;9.90;;;6.67;;
3004;SDS011;1512;51.486;6.610;2023-05-07T07:30:40;14.13;;;6.30;;
3004;SDS011;1512;51.486;6.610;2023-05-07T07:34:49;9.00;;;6.47;;
3004;SDS011;1512;51.486;6.610;2023-05-07T07:38:58;6.83;;;5.23;;
3004;SDS011;1512;51.486;6.610;2023-05-07T07:43:07;6.20;;;5.07;;
3004;SDS011;1512;51.486;6.610;2023-05-07T07:47:17;5.77;;;4.27;;
3004;SDS011;1512;51.486;6.610;2023-05-07T07:51:26;4.87;;;4.40;;
3004;SDS011;1512;51.486;6.610;2023-05-07T07:55:40;5.17;;;3.60;;
3004;SDS011;1512;51.486;6.610;2023-05-07T07:59:49;6.20;;;4.43;;
3004;SDS011;1512;51.486;6.610;2023-05-07T08:03:58;6.87;;;4.13;;
3004;SDS011;1512;51.486;6.610;2023-05-07T08:12:35;6.67;;;5.13;;
3004;SDS011;1512;51.486;6.610;2023-05-07T08:16:45;5.20;;;4.37;;
3004;SDS011;1512;51.486;6.610;2023-05-07T08:20:54;6.00;;;5.00;;
3004;SDS011;1512;51.486;6.610;2023-05-07T08:25:03;6.20;;;4.60;;
3004;SDS011;1512;51.486;6.610;2023-05-07T08:29:11;6.67;;;4.90;;
3004;SDS011;1512;51.486;6.610;2023-05-07T08:33:20;8.57;;;5.03;;
3004;SDS011;1512;51.486;6.610;2023-05-07T08:37:29;5.17;;;4.30;;
3004;SDS011;1512;51.486;6.610;2023-05-07T08:41:39;6.43;;;5.23;;
3004;SDS011;1512;51.486;6.610;2023-05-07T08:45:51;5.00;;;4.50;;
3004;SDS011;1512;51.486;6.610;2023-05-07T08:50:03;6.50;;;4.57;;
3004;SDS011;1512;51.486;6.610;2023-05-07T08:54:15;5.27;;;4.80;;
3004;SDS011;1512;51.486;6.610;2023-05-07T08:58:24;9.00;;;4.50;;
3004;SDS011;1512;51.486;6.610;2023-05-07T09:02:34;5.40;;;4.90;;
3004;SDS011;1512;51.486;6.610;2023-05-07T09:06:43;7.83;;;5.60;;
3004;SDS011;1512;51.486;6.610;2023-05-07T09:10:55;9.27;;;4.93;;
3004;SDS011;1512;51.486;6.610;2023-05-07T09:15:05;7.90;;;5.27;;
3004;SDS011;1512;51.486;6.610;2023-05-07T09:19:15;4.72;;;4.20;;
3004;SDS011;1512;51.486;6.610;2023-05-07T09:23:25;6.13;;;5.53;;
3004;SDS011;1512;51.486;6.610;2023-05-07T09:27:34;5.70;;;4.90;;
3004;SDS011;1512;51.486;6.610;2023-05-07T09:31:45;6.07;;;5.30;;
3004;SDS011;1512;51.486;6.610;2023-05-07T09:35:53;10.73;;;6.30;;
3004;SDS011;1512;51.486;6.610;2023-05-07T09:40:02;6.30;;;4.90;;
3004;SDS011;1512;51.486;6.610;2023-05-07T09:44:16;6.03;;;5.20;;
3004;SDS011;1512;51.486;6.610;2023-05-07T09:48:25;8.23;;;4.47;;
3004;SDS011;1512;51.486;6.610;2023-05-07T09:52:36;5.63;;;5.13;;
3004;SDS011;1512;51.486;6.610;2023-05-07T09:56:48;4.60;;;4.20;;
3004;SDS011;1512;51.486;6.610;2023-05-07T10:00:57;5.27;;;4.80;;
3004;SDS011;1512;51.486;6.610;2023-05-07T10:05:06;7.03;;;4.10;;
3004;SDS011;1512;51.486;6.610;2023-05-07T10:09:17;5.83;;;4.53;;
3004;SDS011;1512;51.486;6.610;2023-05-07T10:13:26;6.00;;;4.80;;
3004;SDS011;1512;51.486;6.610;2023-05-07T10:17:35;5.90;;;4.60;;
3004;SDS011;1512;51.486;6.610;2023-05-07T10:22:00;3.90;;;3.60;;
3004;SDS011;1512;51.486;6.610;2023-05-07T10:26:05;6.50;;;4.00;;
3004;SDS011;1512;51.486;6.610;2023-05-07T10:30:14;5.27;;;3.73;;
3004;SDS011;1512;51.486;6.610;2023-05-07T10:34:40;6.73;;;3.60;;
3004;SDS011;1512;51.486;6.610;2023-05-07T10:38:53;6.00;;;4.10;;
3004;SDS011;1512;51.486;6.610;2023-05-07T10:43:03;4.50;;;3.70;;
3004;SDS011;1512;51.486;6.610;2023-05-07T10:47:15;5.37;;;4.87;;
3004;SDS011;1512;51.486;6.610;2023-05-07T10:51:26;3.70;;;3.30;;
3004;SDS011;1512;51.486;6.610;2023-05-07T10:55:36;6.67;;;4.20;;
3004;SDS011;1512;51.486;6.610;2023-05-07T10:59:44;4.97;;;3.87;;
3004;SDS011;1512;51.486;6.610;2023-05-07T11:04:15;3.60;;;2.90;;
3004;SDS011;1512;51.486;6.610;2023-05-07T11:08:22;3.87;;;3.47;;
3004;SDS011;1512;51.486;6.610;2023-05-07T11:16:49;7.50;;;5.72;;
3004;SDS011;1512;51.486;6.610;2023-05-07T11:20:59;5.07;;;4.07;;
3004;SDS011;1512;51.486;6.610;2023-05-07T11:25:09;5.70;;;4.10;;
3004;SDS011;1512;51.486;6.610;2023-05-07T11:29:20;5.57;;;4.80;;
3004;SDS011;1512;51.486;6.610;2023-05-07T11:33:30;5.43;;;4.03;;
3004;SDS011;1512;51.486;6.610;2023-05-07T11:37:39;5.30;;;4.23;;
3004;SDS011;1512;51.486;6.610;2023-05-07T11:41:47;5.47;;;4.60;;
3004;SDS011;1512;51.486;6.610;2023-05-07T11:46:10;7.50;;;4.03;;
3004;SDS011;1512;51.486;6.610;2023-05-07T11:50:21;6.27;;;4.43;;
3004;SDS011;1512;51.486;6.610;2023-05-07T11:54:36;5.53;;;5.00;;
3004;SDS011;1512;51.486;6.610;2023-05-07T11:58:46;4.73;;;4.00;;
3004;SDS011;1512;51.486;6.610;2023-05-07T12:02:55;4.27;;;3.87;;
3004;SDS011;1512;51.486;6.610;2023-05-07T12:07:04;4.57;;;4.07;;
3004;SDS011;1512;51.486;6.610;2023-05-07T12:11:16;4.67;;;4.27;;
3004;SDS011;1512;51.486;6.610;2023-05-07T12:15:31;4.93;;;4.43;;
3004;SDS011;1512;51.486;6.610;2023-05-07T12:19:43;3.90;;;3.53;;
3004;SDS011;1512;51.486;6.610;2023-05-07T12:23:53;4.67;;;4.07;;
3004;SDS011;1512;51.486;6.610;2023-05-07T12:28:03;4.50;;;4.10;;
3004;SDS011;1512;51.486;6.610;2023-05-07T12:32:13;4.50;;;3.87;;
3004;SDS011;1512;51.486;6.610;2023-05-07T12:36:24;4.20;;;3.80;;
3004;SDS011;1512;51.486;6.610;2023-05-07T12:40:36;4.77;;;3.90;;
3004;SDS011;1512;51.486;6.610;2023-05-07T12:44:46;3.57;;;3.27;;
3004;SDS011;1512;51.486;6.610;2023-05-07T12:48:55;5.90;;;3.73;;
3004;SDS011;1512;51.486;6.610;2023-05-07T12:53:04;3.83;;;2.87;;
3004;SDS011;1512;51.486;6.610;2023-05-07T12:57:13;3.80;;;3.37;;
3004;SDS011;1512;51.486;6.610;2023-05-07T13:01:21;3.63;;;3.33;;
3004;SDS011;1512;51.486;6.610;2023-05-07T13:05:32;4.70;;;3.60;;
3004;SDS011;1512;51.486;6.610;2023-05-07T13:09:41;3.93;;;3.40;;
3004;SDS011;1512;51.486;6.610;2023-05-07T13:13:53;3.73;;;3.43;;
3004;SDS011;1512;51.486;6.610;2023-05-07T13:18:01;9.60;;;3.40;;
3004;SDS011;1512;51.486;6.610;2023-05-07T13:22:16;5.10;;;3.30;;
3004;SDS011;1512;51.486;6.610;2023-05-07T13:26:25;3.70;;;3.40;;
3004;SDS011;1512;51.486;6.610;2023-05-07T13:30:35;5.00;;;4.10;;
3004;SDS011;1512;51.486;6.610;2023-05-07T13:34:43;4.90;;;4.50;;
3004;SDS011;1512;51.486;6.610;2023-05-07T13:38:52;5.60;;;3.87;;
3004;SDS011;1512;51.486;6.610;2023-05-07T13:43:01;8.70;;;3.90;;
3004;SDS011;1512;51.486;6.610;2023-05-07T13:47:10;4.80;;;4.37;;
3004;SDS011;1512;51.486;6.610;2023-05-07T13:51:18;4.47;;;3.97;;
3004;SDS011;1512;51.486;6.610;2023-05-07T13:55:28;4.40;;;4.00;;
3004;SDS011;1512;51.486;6.610;2023-05-07T13:59:37;4.83;;;4.20;;
3004;SDS011;1512;51.486;6.610;2023-05-07T14:03:45;4.97;;;4.47;;
3004;SDS011;1512;51.486;6.610;2023-05-07T14:07:55;4.27;;;3.87;;
3004;SDS011;1512;51.486;6.610;2023-05-07T14:12:05;4.80;;;4.40;;
3004;SDS011;1512;51.486;6.610;2023-05-07T14:16:14;5.70;;;5.27;;
3004;SDS011;1512;51.486;6.610;2023-05-07T14:20:23;6.17;;;5.57;;
3004;SDS011;1512;51.486;6.610;2023-05-07T14:24:35;5.97;;;5.03;;
3004;SDS011;1512;51.486;6.610;2023-05-07T14:28:45;6.00;;;5.00;;
3004;SDS011;1512;51.486;6.610;2023-05-07T14:32:53;6.23;;;5.27;;
3004;SDS011;1512;51.486;6.610;2023-05-07T14:37:03;5.73;;;4.60;;
3004;SDS011;1512;51.486;6.610;2023-05-07T14:41:12;5.30;;;4.50;;
3004;SDS011;1512;51.486;6.610;2023-05-07T14:45:21;5.03;;;4.33;;
3004;SDS011;1512;51.486;6.610;2023-05-07T14:49:30;5.90;;;4.47;;
3004;SDS011;1512;51.486;6.610;2023-05-07T14:53:40;10.00;;;4.57;;
3004;SDS011;1512;51.486;6.610;2023-05-07T14:57:49;4.67;;;4.20;;
3004;SDS011;1512;51.486;6.610;2023-05-07T15:06:13;5.57;;;4.53;;
3004;SDS011;1512;51.486;6.610;2023-05-07T15:10:22;6.53;;;4.50;;
3004;SDS011;1512;51.486;6.610;2023-05-07T15:14:31;4.90;;;4.20;;
3004;SDS011;1512;51.486;6.610;2023-05-07T15:18:40;7.83;;;4.27;;
3004;SDS011;1512;51.486;6.610;2023-05-07T15:22:48;5.10;;;3.87;;
3004;SDS011;1512;51.486;6.610;2023-05-07T15:26:58;6.57;;;4.43;;
3004;SDS011;1512;51.486;6.610;2023-05-07T15:31:09;5.20;;;4.57;;
3004;SDS011;1512;51.486;6.610;2023-05-07T15:35:18;6.43;;;4.40;;
3004;SDS011;1512;51.486;6.610;2023-05-07T15:39:28;5.27;;;4.57;;
3004;SDS011;1512;51.486;6.610;2023-05-07T15:43:45;6.90;;;5.00;;
3004;SDS011;1512;51.486;6.610;2023-05-07T15:47:55;4.77;;;4.37;;
3004;SDS011;1512;51.486;6.610;2023-05-07T15:52:04;4.87;;;4.30;;
3004;SDS011;1512;51.486;6.610;2023-05-07T15:56:12;5.30;;;4.10;;
3004;SDS011;1512;51.486;6.610;2023-05-07T16:00:21;7.20;;;6.13;;
3004;SDS011;1512;51.486;6.610;2023-05-07T16:04:30;7.67;;;5.50;;
3004;SDS011;1512;51.486;6.610;2023-05-07T16:08:39;10.03;;;6.40;;
3004;SDS011;1512;51.486;6.610;2023-05-07T16:12:49;8.23;;;5.33;;
3004;SDS011;1512;51.486;6.610;2023-05-07T16:16:58;6.80;;;5.20;;
3004;SDS011;1512;51.486;6.610;2023-05-07T16:21:07;6.37;;;5.77;;
3004;SDS011;1512;51.486;6.610;2023-05-07T16:25:16;9.33;;;7.20;;
3004;SDS011;1512;51.486;6.610;2023-05-07T16:29:25;8.80;;;6.57;;
3004;SDS011;1512;51.486;6.610;2023-05-07T16:33:33;8.63;;;6.90;;
3004;SDS011;1512;51.486;6.610;2023-05-07T16:37:43;7.60;;;6.90;;
3004;SDS011;1512;51.486;6.610;2023-05-07T16:41:52;7.10;;;6.40;;
3004;SDS011;1512;51.486;6.610;2023-05-07T16:46:01;7.70;;;6.70;;
3004;SDS011;1512;51.486;6.610;2023-05-07T16:50:10;7.77;;;6.90;;
3004;SDS011;1512;51.486;6.610;2023-05-07T16:54:18;9.70;;;6.80;;
3004;SDS011;1512;51.486;6.610;2023-05-07T16:58:27;6.20;;;5.60;;
3004;SDS011;1512;51.486;6.610;2023-05-07T17:02:37;6.70;;;6.00;;
3004;SDS011;1512;51.486;6.610;2023-05-07T17:06:47;5.60;;;5.10;;
3004;SDS011;1512;51.486;6.610;2023-05-07T17:10:56;6.50;;;5.70;;
3004;SDS011;1512;51.486;6.610;2023-05-07T17:15:05;5.37;;;4.87;;
3004;SDS011;1512;51.486;6.610;2023-05-07T17:19:14;7.13;;;5.30;;
3004;SDS011;1512;51.486;6.610;2023-05-07T17:23:23;6.17;;;5.57;;
3004;SDS011;1512;51.486;6.610;2023-05-07T17:27:31;6.97;;;5.80;;
3004;SDS011;1512;51.486;6.610;2023-05-07T17:31:45;9.33;;;7.00;;
3004;SDS011;1512;51.486;6.610;2023-05-07T17:35:54;7.67;;;5.67;;
3004;SDS011;1512;51.486;6.610;2023-05-07T17:40:02;7.17;;;6.47;;
3004;SDS011;1512;51.486;6.610;2023-05-07T17:44:11;5.60;;;4.53;;
3004;SDS011;1512;51.486;6.610;2023-05-07T17:48:20;5.50;;;5.00;;
3004;SDS011;1512;51.486;6.610;2023-05-07T17:52:29;4.83;;;4.43;;
3004;SDS011;1512;51.486;6.610;2023-05-07T17:56:38;5.40;;;4.60;;
3004;SDS011;1512;51.486;6.610;2023-05-07T18:00:47;5.20;;;4.63;;
3004;SDS011;1512;51.486;6.610;2023-05-07T18:04:56;6.37;;;4.33;;
3004;SDS011;1512;51.486;6.610;2023-05-07T18:09:06;5.23;;;4.03;;
3004;SDS011;1512;51.486;6.610;2023-05-07T18:13:15;4.93;;;4.43;;
3004;SDS011;1512;51.486;6.610;2023-05-07T18:17:24;4.57;;;4.17;;
3004;SDS011;1512;51.486;6.610;2023-05-07T18:21:33;4.30;;;3.90;;
3004;SDS011;1512;51.486;6.610;2023-05-07T18:25:45;4.20;;;3.53;;
3004;SDS011;1512;51.486;6.610;2023-05-07T18:29:54;4.23;;;3.70;;
3004;SDS011;1512;51.486;6.610;2023-05-07T18:34:02;4.53;;;4.10;;
3004;SDS011;1512;51.486;6.610;2023-05-07T18:38:12;5.57;;;4.70;;
3004;SDS011;1512;51.486;6.610;2023-05-07T18:42:21;5.23;;;4.70;;
3004;SDS011;1512;51.486;6.610;2023-05-07T18:46:29;5.87;;;5.37;;
3004;SDS011;1512;51.486;6.610;2023-05-07T18:50:40;5.33;;;4.83;;
3004;SDS011;1512;51.486;6.610;2023-05-07T18:54:49;7.53;;;5.50;;
3004;SDS011;1512;51.486;6.610;2023-05-07T18:58:58;7.67;;;6.50;;
3004;SDS011;1512;51.486;6.610;2023-05-07T19:03:07;5.80;;;5.20;;
3004;SDS011;1512;51.486;6.610;2023-05-07T19:07:16;6.50;;;5.37;;
3004;SDS011;1512;51.486;6.610;2023-05-07T19:11:24;6.27;;;5.30;;
3004;SDS011;1512;51.486;6.610;2023-05-07T19:15:33;6.60;;;5.90;;
3004;SDS011;1512;51.486;6.610;2023-05-07T19:19:42;5.50;;;4.83;;
3004;SDS011;1512;51.486;6.610;2023-05-07T19:23:52;6.60;;;5.90;;
3004;SDS011;1512;51.486;6.610;2023-05-07T19:28:03;7.30;;;5.20;;
3004;SDS011;1512;51.486;6.610;2023-05-07T19:32:11;6.00;;;5.40;;
3004;SDS011;1512;51.486;6.610;2023-05-07T19:36:20;5.60;;;4.70;;
3004;SDS011;1512;51.486;6.610;2023-05-07T19:40:29;5.03;;;4.57;;
3004;SDS011;1512;51.486;6.610;2023-05-07T19:44:38;5.30;;;4.80;;
3004;SDS011;1512;51.486;6.610;2023-05-07T19:53:16;5.50;;;5.00;;
3004;SDS011;1512;51.486;6.610;2023-05-07T19:57:25;6.27;;;4.73;;
3004;SDS011;1512;51.486;6.610;2023-05-07T20:01:34;4.83;;;4.33;;
3004;SDS011;1512;51.486;6.610;2023-05-07T20:05:45;6.20;;;5.60;;
3004;SDS011;1512;51.486;6.610;2023-05-07T20:09:54;5.70;;;5.17;;
3004;SDS011;1512;51.486;6.610;2023-05-07T20:14:03;6.10;;;4.80;;
3004;SDS011;1512;51.486;6.610;2023-05-07T20:18:12;5.30;;;4.63;;
3004;SDS011;1512;51.486;6.610;2023-05-07T20:22:22;6.07;;;5.47;;
3004;SDS011;1512;51.486;6.610;2023-05-07T20:26:30;6.90;;;4.83;;
3004;SDS011;1512;51.486;6.610;2023-05-07T20:30:39;6.73;;;5.90;;
3004;SDS011;1512;51.486;6.610;2023-05-07T20:34:48;4.77;;;4.37;;
3004;SDS011;1512;51.486;6.610;2023-05-07T20:38:57;7.30;;;5.20;;
3004;SDS011;1512;51.486;6.610;2023-05-07T20:43:05;7.13;;;5.87;;
3004;SDS011;1512;51.486;6.610;2023-05-07T20:47:14;6.43;;;5.80;;
3004;SDS011;1512;51.486;6.610;2023-05-07T20:51:23;6.63;;;5.83;;
3004;SDS011;1512;51.486;6.610;2023-05-07T21:00:01;6.80;;;6.10;;
3004;SDS011;1512;51.486;6.610;2023-05-07T21:04:10;6.93;;;6.00;;
3004;SDS011;1512;51.486;6.610;2023-05-07T21:08:19;9.50;;;6.47;;
3004;SDS011;1512;51.486;6.610;2023-05-07T21:12:28;11.70;;;6.10;;
3004;SDS011;1512;51.486;6.610;2023-05-07T21:16:36;6.50;;;5.80;;
3004;SDS011;1512;51.486;6.610;2023-05-07T21:20:46;6.53;;;5.83;;
3004;SDS011;1512;51.486;6.610;2023-05-07T21:24:55;8.13;;;6.87;;
3004;SDS011;1512;51.486;6.610;2023-05-07T21:29:04;6.07;;;5.23;;
3004;SDS011;1512;51.486;6.610;2023-05-07T21:33:13;8.10;;;7.30;;
3004;SDS011;1512;51.486;6.610;2023-05-07T21:37:21;6.77;;;5.33;;
3004;SDS011;1512;51.486;6.610;2023-05-07T21:41:30;8.13;;;6.47;;
3004;SDS011;1512;51.486;6.610;2023-05-07T21:45:39;7.00;;;6.30;;
3004;SDS011;1512;51.486;6.610;2023-05-07T21:49:47;9.70;;;8.00;;
3004;SDS011;1512;51.486;6.610;2023-05-07T21:53:56;7.30;;;6.60;;
3004;SDS011;1512;51.486;6.610;2023-05-07T21:58:04;8.40;;;7.00;;
3004;SDS011;1512;51.486;6.610;2023-05-07T22:02:13;8.50;;;7.10;;
3004;SDS011;1512;51.486;6.610;2023-05-07T22:06:22;9.80;;;8.20;;
3004;SDS011;1512;51.486;6.610;2023-05-07T22:10:31;9.43;;;7.93;;
3004;SDS011;1512;51.486;6.610;2023-05-07T22:14:40;9.50;;;8.33;;
3004;SDS011;1512;51.486;6.610;2023-05-07T22:18:48;11.93;;;7.87;;
3004;SDS011;1512;51.486;6.610;2023-05-07T22:22:57;8.37;;;7.40;;
3004;SDS011;1512;51.486;6.610;2023-05-07T22:27:06;9.37;;;7.93;;
3004;SDS011;1512;51.486;6.610;2023-05-07T22:31:20;9.73;;;8.57;;
3004;SDS011;1512;51.486;6.610;2023-05-07T22:35:29;13.53;;;8.33;;
3004;SDS011;1512;51.486;6.610;2023-05-07T22:39:37;9.43;;;8.53;;
3004;SDS011;1512;51.486;6.610;2023-05-07T22:43:47;10.17;;;9.07;;
3004;SDS011;1512;51.486;6.610;2023-05-07T22:47:56;11.33;;;8.47;;
3004;SDS011;1512;51.486;6.610;2023-05-07T22:52:05;9.73;;;7.80;;
3004;SDS011;1512;51.486;6.610;2023-05-07T23:00:42;9.23;;;8.10;;
3004;SDS011;1512;51.486;6.610;2023-05-07T23:04:51;8.67;;;7.70;;
3004;SDS011;1512;51.486;6.610;2023-05-07T23:08:59;11.20;;;8.53;;
3004;SDS011;1512;51.486;6.610;2023-05-07T23:13:08;10.50;;;8.63;;
3004;SDS011;1512;51.486;6.610;2023-05-07T23:17:18;9.30;;;8.30;;
3004;SDS011;1512;51.486;6.610;2023-05-07T23:21:27;10.70;;;9.20;;
3004;SDS011;1512;51.486;6.610;2023-05-07T23:25:36;10.77;;;8.60;;
3004;SDS011;1512;51.486;6.610;2023-05-07T23:29:44;10.00;;;8.80;;
3004;SDS011;1512;51.486;6.610;2023-05-07T23:33:53;11.67;;;9.37;;
3004;SDS011;1512;51.486;6.610;2023-05-07T23:38:02;10.47;;;9.47;;
3004;SDS011;1512;51.486;6.610;2023-05-07T23:42:10;12.63;;;9.60;;
3004;SDS011;1512;51.486;6.610;2023-05-07T23:46:19;11.90;;;9.67;;
3004;SDS011;1512;51.486;6.610;2023-05-07T23:54:56;11.57;;;9.30;;
3004;SDS011;1512;51.486;6.610;2023-05-07T23:59:05;13.97;;;9.47;;
